Time;durP1;ratioP1;P1;durP2;ratioP2;P2;SDS_P1;SDS_P2;PMS_P1;PMS_P2;Temp;Humidity;BMP_temperature;BMP_pressure;BME280_temperature;BME280_humidity;BME280_pressure;Samples;Min_cycle;Max_cycle;Signal;HPM_P1;HPM_P2
2022/05/02 00:00:51;;;;;;;2.33;1.70;;;;;;;5.81;60.09;101508.16;5054349;28;20302;-59
2022/05/02 00:03:16;;;;;;;3.00;1.80;;;;;;;5.84;59.76;101513.22;5054365;28;20120;-61
2022/05/02 00:05:43;;;;;;;2.63;1.70;;;;;;;5.92;59.53;101517.13;5054380;28;20533;-59
2022/05/02 00:08:09;;;;;;;2.20;1.53;;;;;;;5.88;59.34;101514.66;5054095;28;20044;-58
2022/05/02 00:10:35;;;;;;;4.50;1.50;;;;;;;5.79;60.02;101499.50;5053993;28;20267;-57
2022/05/02 00:13:03;;;;;;;2.20;1.40;;;;;;;5.82;60.11;101509.84;5053832;28;20122;-60
2022/05/02 00:15:29;;;;;;;3.47;1.88;;;;;;;5.62;60.00;101470.81;5054242;28;20055;-57
2022/05/02 00:17:58;;;;;;;3.53;1.60;;;;;;;5.55;60.23;101456.38;5053946;28;20496;-59
2022/05/02 00:20:23;;;;;;;3.33;1.85;;;;;;;5.89;60.26;101515.50;5053962;28;20450;-58
2022/05/02 00:22:49;;;;;;;3.47;1.40;;;;;;;5.81;60.30;101494.94;5053726;28;20059;-58
2022/05/02 00:25:16;;;;;;;2.37;1.60;;;;;;;5.79;60.48;101499.50;5054203;28;20037;-57
2022/05/02 00:27:42;;;;;;;3.47;1.37;;;;;;;5.79;60.70;101502.16;5054885;28;20301;-57
2022/05/02 00:30:10;;;;;;;2.10;1.30;;;;;;;5.78;60.63;101495.19;5053758;28;20490;-61
2022/05/02 00:32:36;;;;;;;2.28;1.40;;;;;;;5.84;61.14;101502.66;5054042;28;20567;-57
2022/05/02 00:35:02;;;;;;;2.10;1.73;;;;;;;5.79;61.42;101503.94;5053743;28;20128;-59
2022/05/02 00:37:29;;;;;;;1.60;1.30;;;;;;;5.80;60.61;101510.91;5053515;28;20457;-58
2022/05/02 00:39:55;;;;;;;2.80;1.40;;;;;;;5.74;61.09;101491.03;5053391;28;20535;-56
2022/05/02 00:42:21;;;;;;;1.90;1.80;;;;;;;5.78;61.70;101503.09;5053370;28;20128;-59
2022/05/02 00:44:46;;;;;;;3.73;1.60;;;;;;;5.60;61.18;101478.03;5053561;28;20591;-59
2022/05/02 00:47:15;;;;;;;2.57;1.57;;;;;;;5.68;61.27;101502.06;5053573;28;20063;-58
2022/05/02 00:49:41;;;;;;;2.08;1.98;;;;;;;5.57;61.85;101496.75;5054024;28;20041;-59
2022/05/02 00:52:07;;;;;;;2.07;1.60;;;;;;;5.50;61.58;101501.66;5053962;28;20447;-59
2022/05/02 00:54:35;;;;;;;3.80;1.87;;;;;;;5.41;61.71;101509.38;5051744;28;20048;-58
2022/05/02 00:57:01;;;;;;;1.27;1.17;;;;;;;5.23;61.52;101486.00;5053207;28;20033;-59
2022/05/02 00:59:27;;;;;;;2.30;1.43;;;;;;;5.16;61.93;101489.16;5052839;28;20619;-58
2022/05/02 01:01:52;;;;;;;2.83;1.40;;;;;;;5.12;62.12;101493.81;5052624;28;20516;-60
2022/05/02 01:04:18;;;;;;;3.47;1.60;;;;;;;5.09;62.20;101494.03;5052896;28;20447;-59
2022/05/02 01:09:31;;;;;;;1.57;1.23;;;;;;;4.94;62.50;101488.06;5052890;28;20033;-58
2022/05/02 01:11:57;;;;;;;1.67;1.50;;;;;;;4.95;62.32;101492.41;5053660;28;20336;-59
2022/05/02 01:14:22;;;;;;;2.90;1.63;;;;;;;4.92;62.09;101484.69;5053678;28;20754;-60
2022/05/02 01:16:49;;;;;;;2.07;1.27;;;;;;;4.87;62.51;101480.69;5053412;28;20033;-59
2022/05/02 01:19:14;;;;;;;2.50;1.30;;;;;;;4.83;62.59;101479.22;5052485;28;20043;-59
2022/05/02 01:21:43;;;;;;;1.60;1.40;;;;;;;4.74;63.18;101472.78;5052397;28;20355;-59
2022/05/02 01:24:08;;;;;;;5.50;1.33;;;;;;;4.68;63.36;101472.38;5052789;28;20515;-60
2022/05/02 01:26:34;;;;;;;1.73;1.63;;;;;;;4.69;63.49;101490.75;5052553;28;20069;-61
2022/05/02 01:29:06;;;;;;;2.60;1.50;;;;;;;4.53;64.12;101464.56;5052359;28;20047;-59
2022/05/02 01:31:32;;;;;;;2.03;1.50;;;;;;;4.48;64.41;101460.56;5053245;28;20516;-59
2022/05/02 01:33:57;;;;;;;5.47;2.33;;;;;;;4.47;64.95;101464.16;5053395;28;20326;-58
2022/05/02 01:36:24;;;;;;;1.40;1.17;;;;;;;4.48;64.63;101465.84;5052816;28;20068;-59
2022/05/02 01:38:50;;;;;;;4.27;1.20;;;;;;;4.11;64.46;101406.91;5052664;28;20115;-58
2022/05/02 01:41:16;;;;;;;6.00;1.97;;;;;;;4.45;64.19;101445.81;5052453;28;20289;-59
2022/05/02 01:43:43;;;;;;;1.47;1.30;;;;;;;4.61;63.89;101474.59;5050836;28;20267;-60
2022/05/02 01:46:11;;;;;;;1.63;1.40;;;;;;;4.43;64.06;101450.34;5052076;28;20663;-58
2022/05/02 01:48:37;;;;;;;1.65;1.40;;;;;;;4.38;63.59;101435.78;5052239;28;20283;-58
2022/05/02 01:51:03;;;;;;;3.20;1.57;;;;;;;4.49;63.80;101456.97;5052140;28;20028;-59
2022/05/02 01:53:28;;;;;;;1.50;1.13;;;;;;;4.13;64.96;101407.63;5052157;28;20064;-57
2022/05/02 01:55:54;;;;;;;2.57;1.37;;;;;;;4.40;64.64;101447.91;5052234;28;20044;-60
2022/05/02 01:58:19;;;;;;;1.50;1.27;;;;;;;4.39;64.83;101438.31;5051483;28;20062;-61
2022/05/02 02:00:45;;;;;;;2.00;1.60;;;;;;;4.35;65.22;101440.34;5051989;28;20033;-57
2022/05/02 02:03:11;;;;;;;11.43;2.90;;;;;;;4.41;65.48;101454.03;5051984;28;20041;-59
2022/05/02 02:05:48;;;;;;;3.03;1.50;;;;;;;4.30;64.86;101434.50;5051760;28;20500;-57
2022/05/02 02:08:35;;;;;;;3.23;1.40;;;;;;;4.42;65.41;101455.72;5051982;28;20381;-59
2022/05/02 02:11:04;;;;;;;1.87;1.60;;;;;;;4.35;65.04;101447.41;5051599;28;20413;-56
2022/05/02 02:13:30;;;;;;;2.50;1.87;;;;;;;4.41;64.61;101452.25;5051817;28;20353;-58
2022/05/02 02:15:56;;;;;;;1.60;1.00;;;;;;;4.45;64.81;101461.63;5051477;28;20738;-59
2022/05/02 02:18:22;;;;;;;4.70;2.07;;;;;;;4.50;64.48;101461.31;5052166;28;20298;-59
2022/05/02 02:20:49;;;;;;;5.63;1.60;;;;;;;4.41;63.77;101436.41;5051954;28;20308;-59
2022/05/02 02:23:16;;;;;;;1.87;1.30;;;;;;;4.49;63.89;101438.53;5051797;28;20087;-59
2022/05/02 02:25:42;;;;;;;3.17;1.57;;;;;;;4.51;63.92;101440.09;5051708;28;20264;-59
2022/05/02 02:28:09;;;;;;;1.97;1.30;;;;;;;4.49;63.77;101428.81;5051334;28;20887;-59
2022/05/02 02:30:41;;;;;;;3.10;1.57;;;;;;;4.50;63.49;101422.59;5051615;28;20323;-56
2022/05/02 02:33:06;;;;;;;1.40;1.20;;;;;;;4.61;63.69;101438.50;5051543;28;20517;-56
2022/05/02 02:35:32;;;;;;;3.30;1.70;;;;;;;4.68;63.18;101438.09;5051838;28;20350;-60
2022/05/02 02:37:58;;;;;;;2.50;1.50;;;;;;;4.56;63.38;101416.88;5051686;28;20033;-59
2022/05/02 02:40:23;;;;;;;4.60;2.23;;;;;;;4.72;63.26;101437.75;5051954;28;20037;-59
2022/05/02 02:42:49;;;;;;;1.40;1.30;;;;;;;4.62;63.06;101416.44;5052041;28;20396;-59
2022/05/02 02:45:15;;;;;;;2.60;1.80;;;;;;;4.72;62.85;101436.91;5051726;28;20472;-60
2022/05/02 02:47:42;;;;;;;3.97;2.63;;;;;;;4.63;62.93;101423.44;5051924;28;20033;-58
2022/05/02 02:50:08;;;;;;;3.40;1.47;;;;;;;4.69;63.02;101430.06;5052090;28;20051;-59
2022/05/02 02:52:34;;;;;;;3.40;1.70;;;;;;;4.61;63.30;101419.19;5052367;28;20290;-59
2022/05/02 02:55:00;;;;;;;2.20;1.50;;;;;;;4.66;63.41;101423.22;5052052;28;20599;-59
2022/05/02 02:57:25;;;;;;;1.80;1.70;;;;;;;4.68;63.85;101424.91;5051732;28;20549;-56
2022/05/02 02:59:51;;;;;;;2.70;1.63;;;;;;;4.70;64.06;101428.25;5051276;28;20055;-57
2022/05/02 03:02:16;;;;;;;2.73;2.10;;;;;;;4.53;64.28;101401.25;5051448;28;20120;-61
2022/05/02 03:07:27;;;;;;;1.60;1.50;;;;;;;4.73;63.86;101433.31;5051045;28;20047;-60
2022/05/02 03:09:53;;;;;;;3.67;1.60;;;;;;;4.68;64.37;101430.16;5052157;28;20616;-59
2022/05/02 03:12:20;;;;;;;1.60;1.50;;;;;;;4.69;64.47;101429.22;5054846;28;20301;-58
2022/05/02 03:14:46;;;;;;;3.10;1.70;;;;;;;4.76;64.43;101433.94;5055198;28;20036;-59
2022/05/02 03:17:11;;;;;;;2.20;1.60;;;;;;;5.21;63.12;101416.59;5055146;28;20392;-57
2022/05/02 03:19:37;;;;;;;2.20;1.97;;;;;;;6.23;59.48;101378.97;5055019;28;20048;-60
2022/05/02 03:22:04;;;;;;;2.30;1.40;;;;;;;7.93;55.19;101426.94;5054969;28;20032;-60
2022/05/02 03:24:29;;;;;;;2.27;1.87;;;;;;;9.05;52.22;101421.59;5054490;28;20037;-59
2022/05/02 03:26:55;;;;;;;2.37;1.60;;;;;;;9.79;50.00;101408.63;5054476;28;20086;-60
2022/05/02 03:29:22;;;;;;;2.70;1.90;;;;;;;10.38;48.57;101428.00;5054379;28;20144;-58
2022/05/02 03:31:50;;;;;;;6.40;1.93;;;;;;;10.36;48.26;101427.31;5054605;28;20454;-59
2022/05/02 03:34:15;;;;;;;2.80;1.90;;;;;;;9.95;48.12;101432.00;5054797;28;20044;-58
2022/05/02 03:36:41;;;;;;;2.37;1.70;;;;;;;9.38;49.42;101420.41;5054737;28;20689;-58
2022/05/02 03:39:07;;;;;;;2.67;1.80;;;;;;;9.53;49.82;101403.03;5054370;28;20483;-59
2022/05/02 03:41:32;;;;;;;2.50;1.80;;;;;;;9.47;50.46;101426.69;5054433;28;20037;-59
2022/05/02 03:43:58;;;;;;;2.17;1.60;;;;;;;9.16;50.66;101410.84;5054717;28;20045;-58
2022/05/02 03:46:24;;;;;;;4.10;1.80;;;;;;;9.49;50.30;101416.75;5054599;28;20037;-59
2022/05/02 03:48:49;;;;;;;4.10;2.37;;;;;;;9.69;49.77;101410.47;5054450;28;20044;-59
2022/05/02 03:51:15;;;;;;;4.87;2.40;;;;;;;9.61;50.72;101436.94;5054547;28;20039;-58
2022/05/02 03:53:40;;;;;;;4.53;2.30;;;;;;;9.82;49.86;101418.97;5054662;28;20045;-58
2022/05/02 03:56:06;;;;;;;2.83;2.00;;;;;;;10.11;50.33;101428.75;5057625;28;20059;-60
2022/05/02 03:58:32;;;;;;;10.50;2.60;;;;;;;10.16;49.53;101406.06;5054730;28;20032;-59
2022/05/02 04:00:57;;;;;;;3.93;2.10;;;;;;;9.85;50.75;101429.38;5054186;28;20028;-57
2022/05/02 04:03:23;;;;;;;2.17;1.97;;;;;;;9.76;51.08;101432.84;5052889;28;20491;-59
2022/05/02 04:05:49;;;;;;;3.33;1.70;;;;;;;9.48;51.57;101426.53;5054206;28;20115;-59
2022/05/02 04:08:15;;;;;;;3.37;1.70;;;;;;;9.04;53.16;101421.75;5053898;28;20045;-60
2022/05/02 04:10:40;;;;;;;4.50;2.57;;;;;;;8.29;55.79;101430.91;5054054;28;20039;-61
2022/05/02 04:13:06;;;;;;;1.70;1.60;;;;;;;7.48;58.58;101440.38;5054117;28;20115;-58
2022/05/02 04:15:32;;;;;;;6.80;1.97;;;;;;;6.53;60.36;101384.50;5053912;28;20493;-60
2022/05/02 04:17:58;;;;;;;2.60;1.70;;;;;;;6.18;61.75;101381.97;5053972;28;20032;-58
2022/05/02 04:20:24;;;;;;;2.17;1.53;;;;;;;6.18;63.09;101426.09;5053414;28;20105;-60
2022/05/02 04:22:50;;;;;;;3.10;1.87;;;;;;;6.01;63.94;101430.00;5053719;28;20436;-59
2022/05/02 04:25:16;;;;;;;2.27;1.50;;;;;;;5.69;65.09;101419.19;5053899;28;20032;-58
2022/05/02 04:27:42;;;;;;;4.07;2.20;;;;;;;5.53;65.53;101408.94;5053643;28;20044;-57
2022/05/02 04:30:10;;;;;;;4.33;1.80;;;;;;;5.57;66.06;101428.91;5053438;28;20060;-61
2022/05/02 04:32:40;;;;;;;2.10;1.90;;;;;;;5.54;66.61;101423.84;5053665;28;20390;-58
2022/05/02 04:35:06;;;;;;;4.23;1.83;;;;;;;5.14;67.47;101365.19;5053690;28;20045;-59
2022/05/02 04:37:32;;;;;;;2.47;2.00;;;;;;;5.42;67.50;101416.81;5054230;28;20526;-60
2022/05/02 04:39:58;;;;;;;2.53;1.77;;;;;;;5.34;68.23;101398.06;5054083;28;20033;-60
2022/05/02 04:42:24;;;;;;;2.00;1.80;;;;;;;5.42;68.08;101410.69;5052312;28;20433;-59
2022/05/02 04:44:49;;;;;;;4.13;2.60;;;;;;;5.71;67.43;101396.13;5053411;28;20098;-60
2022/05/02 04:47:15;;;;;;;9.63;3.33;;;;;;;7.54;62.34;101408.09;5053177;28;20037;-57
2022/05/02 04:49:41;;;;;;;5.93;2.97;;;;;;;9.12;56.10;101398.81;5053144;28;20041;-59
2022/05/02 04:52:07;;;;;;;4.17;2.67;;;;;;;10.17;52.92;101409.56;5052907;28;20492;-59
2022/05/02 04:54:32;;;;;;;4.23;2.57;;;;;;;10.78;50.71;101406.41;5053115;28;20033;-59
2022/05/02 04:56:58;;;;;;;4.60;2.30;;;;;;;11.01;49.58;101396.19;5053097;28;20045;-58
2022/05/02 04:59:23;;;;;;;5.20;2.40;;;;;;;11.33;49.02;101396.53;5053047;28;20040;-60
2022/05/02 05:01:49;;;;;;;2.80;1.77;;;;;;;11.00;49.81;101389.19;5053267;28;20033;-60
2022/05/02 05:04:15;;;;;;;2.83;1.67;;;;;;;9.82;52.91;101397.69;5054020;28;20059;-58
2022/05/02 05:06:40;;;;;;;3.70;1.70;;;;;;;8.86;56.08;101409.09;5053312;28;20040;-59
2022/05/02 05:09:06;;;;;;;3.33;1.87;;;;;;;7.97;58.34;101394.72;5052778;28;20066;-58
2022/05/02 05:12:00;;;;;;;2.77;1.80;;;;;;;7.49;60.44;101399.66;5052660;28;20086;-66
2022/05/02 05:18:12;;;;;;;4.90;2.07;;;;;;;7.07;62.49;101410.16;5052913;28;20041;-70
2022/05/02 05:21:02;;;;;;;2.83;1.87;;;;;;;6.84;62.21;101397.94;5032374;28;20567;-63
2022/05/02 05:23:30;;;;;;;2.90;2.00;;;;;;;6.80;62.99;101407.09;5031912;28;20038;-66
2022/05/02 05:26:12;;;;;;;7.05;1.77;;;;;;;6.73;62.49;101404.09;5046684;28;20527;-64
2022/05/02 05:28:47;;;;;;;4.23;1.80;;;;;;;6.67;63.02;101406.38;5049709;28;20492;-65
2022/05/02 05:31:41;;;;;;;3.20;2.47;;;;;;;6.35;62.33;101342.75;5052411;28;20063;-64
2022/05/02 05:34:28;;;;;;;2.87;1.97;;;;;;;6.65;62.61;101408.28;5051500;28;20118;-65
2022/05/02 05:37:35;;;;;;;3.83;1.70;;;;;;;6.58;63.35;101404.44;5052415;28;20076;-65
2022/05/02 05:40:30;;;;;;;5.10;1.70;;;;;;;6.61;62.75;101396.25;5049034;28;20040;-65
2022/05/02 05:43:33;;;;;;;3.37;2.10;;;;;;;6.65;62.34;101389.75;5022245;28;20048;-64
2022/05/02 05:46:23;;;;;;;6.23;1.70;;;;;;;6.65;61.95;101392.41;5032281;28;20492;-63
2022/05/02 05:48:52;;;;;;;2.27;1.63;;;;;;;6.61;61.18;101390.97;5032334;28;20086;-64
2022/05/02 05:52:10;;;;;;;4.97;2.03;;;;;;;6.66;60.78;101388.81;5032466;28;20041;-66
2022/05/02 05:54:55;;;;;;;2.58;1.38;;;;;;;6.60;60.98;101391.94;5010024;28;20144;-64
2022/05/02 05:57:36;;;;;;;2.47;1.67;;;;;;;6.25;60.39;101336.50;5032130;28;20049;-66
2022/05/02 06:00:09;;;;;;;10.60;3.47;;;;;;;6.59;60.15;101398.19;5035130;28;20481;-66
2022/05/02 06:02:46;;;;;;;2.07;1.70;;;;;;;6.53;60.13;101373.06;5051538;28;20419;-67
2022/05/02 06:05:13;;;;;;;7.73;1.83;;;;;;;6.54;59.59;101377.38;5051719;28;20127;-68
2022/05/02 06:07:40;;;;;;;5.20;1.60;;;;;;;6.70;58.69;101382.31;5051693;28;20087;-64
2022/05/02 06:10:08;;;;;;;2.90;1.90;;;;;;;6.71;58.85;101381.34;5050354;28;20047;-64
2022/05/02 06:12:36;;;;;;;4.43;2.10;;;;;;;6.75;58.99;101369.56;5051588;28;20029;-65
2022/05/02 06:20:34;;;;;;;2.50;1.37;;;;;;;6.80;55.75;101348.84;5051885;28;20043;-66
2022/05/02 06:23:02;;;;;;;2.30;1.30;;;;;;;6.85;53.95;101351.94;5052193;28;20078;-60
2022/05/02 06:25:42;;;;;;;6.43;1.70;;;;;;;6.98;54.11;101384.44;5051629;28;20033;-62
2022/05/02 06:28:08;;;;;;;2.10;1.60;;;;;;;6.95;52.69;101387.34;5051542;28;20045;-59
2022/05/02 06:30:39;;;;;;;5.77;1.90;;;;;;;6.91;52.13;101367.34;5051531;28;20102;-60
2022/05/02 06:33:11;;;;;;;5.80;1.60;;;;;;;6.96;51.03;101378.44;5051561;28;20386;-61
2022/05/02 06:35:52;;;;;;;3.47;1.47;;;;;;;7.02;50.89;101369.97;5051626;28;20108;-59
2022/05/02 06:38:39;;;;;;;5.60;1.50;;;;;;;7.02;50.05;101369.97;5051621;28;20126;-60
2022/05/02 06:41:30;;;;;;;2.43;1.73;;;;;;;7.20;50.71;101369.41;5051467;28;20415;-61
2022/05/02 06:44:01;;;;;;;8.83;1.40;;;;;;;7.27;49.67;101367.97;5052307;28;20083;-62
2022/05/02 06:47:01;;;;;;;1.60;1.43;;;;;;;7.36;50.14;101365.41;5055480;28;20099;-61
2022/05/02 06:49:31;;;;;;;3.10;1.50;;;;;;;7.35;48.79;101358.41;5055270;28;20053;-58
2022/05/02 06:51:58;;;;;;;1.30;1.20;;;;;;;7.42;49.42;101356.09;5055748;28;20068;-59
2022/05/02 06:54:29;;;;;;;1.77;1.37;;;;;;;7.57;50.46;101369.88;5055334;28;20036;-61
2022/05/02 06:57:10;;;;;;;3.10;1.63;;;;;;;7.60;48.46;101359.88;5055106;28;20095;-66
2022/05/02 06:59:46;;;;;;;7.87;1.33;;;;;;;7.68;48.61;101360.03;5054102;28;20044;-63
2022/05/02 07:02:29;;;;;;;3.27;1.50;;;;;;;7.80;48.98;101354.66;5045369;28;20068;-64
2022/05/02 07:04:56;;;;;;;2.73;1.87;;;;;;;7.74;48.47;101343.63;5035591;28;20040;-64
2022/05/02 07:08:03;;;;;;;4.27;1.30;;;;;;;7.91;48.71;101365.22;5035062;28;20067;-66
2022/05/02 07:10:36;;;;;;;7.57;1.70;;;;;;;7.83;48.07;101344.66;5044744;28;20049;-69
2022/05/02 07:13:23;;;;;;;9.27;2.00;;;;;;;7.87;48.14;101369.94;5035115;28;20033;-68
2022/05/02 07:16:20;;;;;;;1.93;1.80;;;;;;;7.83;47.17;101365.03;5033847;28;20103;-68
2022/05/02 07:18:49;;;;;;;2.30;1.80;;;;;;;7.88;46.79;101358.38;5035287;28;20052;-70
2022/05/02 07:21:54;;;;;;;5.32;1.67;;;;;;;7.90;48.49;101350.28;5035112;28;20037;-67
2022/05/02 07:24:43;;;;;;;3.00;1.60;;;;;;;8.00;47.11;101365.28;5033596;28;20528;-63
2022/05/02 07:27:39;;;;;;;6.22;2.40;;;;;;;8.14;47.30;101368.56;5037086;28;20037;-64
2022/05/02 07:30:05;;;;;;;1.63;1.23;;;;;;;8.11;46.24;101351.09;5035220;28;20156;-65
2022/05/02 07:32:32;;;;;;;1.70;1.00;;;;;;;8.19;47.37;101350.44;5034737;28;20049;-64
2022/05/02 07:35:02;;;;;;;2.70;1.57;;;;;;;8.34;47.51;101357.06;5043183;28;20068;-64
2022/05/02 07:37:31;;;;;;;2.10;1.60;;;;;;;8.33;47.20;101353.59;5047877;28;20033;-63
2022/05/02 07:39:58;;;;;;;2.67;2.08;;;;;;;8.50;46.16;101354.78;5054665;28;20037;-62
2022/05/02 07:42:25;;;;;;;2.00;1.47;;;;;;;8.46;46.26;101331.28;5054476;28;20043;-63
2022/05/02 07:44:55;;;;;;;2.13;1.67;;;;;;;8.66;45.05;101360.41;5054255;28;20033;-64
2022/05/02 07:47:21;;;;;;;1.90;1.47;;;;;;;8.49;46.48;101300.00;5054050;28;20545;-66
2022/05/02 07:49:48;;;;;;;3.77;2.13;;;;;;;8.99;45.13;101340.66;5054413;28;20033;-63
2022/05/02 07:52:21;;;;;;;6.13;1.53;;;;;;;9.20;44.40;101345.81;5054236;28;20032;-66
2022/05/02 07:54:49;;;;;;;2.33;1.60;;;;;;;8.98;43.87;101328.34;5055025;28;20056;-60
2022/05/02 07:57:15;;;;;;;8.03;2.50;;;;;;;8.70;44.70;101299.91;5053333;28;20043;-62
2022/05/02 07:59:43;;;;;;;6.83;1.73;;;;;;;9.07;44.04;101331.97;5054395;28;20095;-64
2022/05/02 08:02:09;;;;;;;3.17;1.27;;;;;;;9.21;43.45;101344.81;5045781;28;20052;-61
2022/05/02 08:04:42;;;;;;;2.33;1.30;;;;;;;9.31;42.20;101339.53;5050576;28;20056;-58
2022/05/02 08:07:18;;;;;;;3.87;1.53;;;;;;;9.29;42.72;101334.38;5054039;28;20068;-58
2022/05/02 08:10:05;;;;;;;4.20;1.37;;;;;;;9.38;42.14;101334.50;5053933;28;20069;-62
2022/05/02 08:12:40;;;;;;;4.87;1.93;;;;;;;9.24;42.17;101327.75;5054287;28;20041;-59
2022/05/02 08:15:30;;;;;;;1.97;1.67;;;;;;;9.28;42.44;101334.50;5053817;28;20492;-55
2022/05/02 08:18:01;;;;;;;5.63;2.03;;;;;;;9.27;42.35;101336.31;5054139;28;20071;-61
2022/05/02 08:20:45;;;;;;;3.30;1.73;;;;;;;9.37;42.37;101336.31;5053626;28;20047;-62
2022/05/02 08:27:16;;;;;;;1.63;1.53;;;;;;;9.57;42.28;101330.00;5053965;28;20044;-60
2022/05/02 08:30:02;;;;;;;1.27;1.17;;;;;;;9.52;41.94;101305.63;5053426;28;20057;-62
2022/05/02 08:32:34;;;;;;;1.67;1.55;;;;;;;9.77;40.76;101324.63;5053809;28;20053;-63
2022/05/02 08:35:08;;;;;;;3.30;1.20;;;;;;;9.72;41.75;101305.59;5053701;28;20037;-60
2022/05/02 08:37:49;;;;;;;3.53;1.47;;;;;;;9.82;40.71;101320.53;5053407;28;20492;-60
2022/05/02 08:40:24;;;;;;;2.80;1.43;;;;;;;9.78;40.82;101318.31;5053120;28;20041;-64
2022/05/02 08:43:15;;;;;;;3.40;1.40;;;;;;;9.78;40.27;101307.69;5052659;28;20064;-65
2022/05/02 08:46:02;;;;;;;1.53;1.13;;;;;;;9.71;41.00;101303.94;5050474;28;20096;-66
2022/05/02 08:49:32;;;;;;;3.90;1.40;;;;;;;9.67;41.39;101308.69;5052567;28;20064;-65
2022/05/02 08:52:00;;;;;;;4.10;1.97;;;;;;;9.62;41.15;101285.19;5051221;28;20037;-66
2022/05/02 08:54:48;;;;;;;2.73;1.80;;;;;;;9.68;41.61;101282.94;5056207;28;20159;-63
2022/05/02 08:57:35;;;;;;;4.53;2.03;;;;;;;9.60;40.86;101273.88;5050712;28;20033;-66
2022/05/02 09:00:36;;;;;;;2.17;1.50;;;;;;;9.69;41.44;101279.31;5051579;28;20036;-69
2022/05/02 09:03:07;;;;;;;1.90;1.63;;;;;;;9.75;40.58;101278.72;5040301;28;20515;-69
2022/05/02 09:05:43;;;;;;;3.57;2.13;;;;;;;9.65;41.04;101252.16;5049663;28;20377;-65
2022/05/02 09:08:33;;;;;;;4.47;1.50;;;;;;;9.86;40.89;101273.25;5051472;28;20037;-62
2022/05/02 09:11:32;;;;;;;4.37;1.77;;;;;;;9.86;40.32;101275.91;5050916;28;20040;-62
2022/05/02 09:14:16;;;;;;;9.43;2.13;;;;;;;9.85;40.61;101252.94;5050381;28;20036;-61
2022/05/02 09:17:15;;;;;;;3.00;1.27;;;;;;;10.01;39.90;101262.94;5052197;28;20049;-61
2022/05/02 09:20:18;;;;;;;2.20;1.93;;;;;;;10.06;40.50;101250.88;5051221;28;20045;-64
2022/05/02 09:23:08;;;;;;;5.20;2.00;;;;;;;10.10;39.38;101241.59;5050700;28;20064;-64
2022/05/02 09:25:59;;;;;;;3.07;1.50;;;;;;;10.08;39.10;101222.28;5049265;28;20135;-64
2022/05/02 09:28:45;;;;;;;13.23;2.10;;;;;;;10.40;39.85;101232.50;5050844;28;20044;-59
2022/05/02 09:31:13;;;;;;;3.60;1.60;;;;;;;10.17;39.66;101168.19;5046672;28;20123;-61
2022/05/02 09:33:57;;;;;;;9.98;3.13;;;;;;;10.68;37.89;101225.28;5052030;28;20550;-59
2022/05/02 09:36:39;;;;;;;5.23;1.60;;;;;;;10.45;38.15;101177.00;5052479;28;20045;-59
2022/05/02 09:39:22;;;;;;;3.17;1.80;;;;;;;10.94;38.58;101205.88;5051967;28;20033;-59
2022/05/02 09:42:08;;;;;;;7.37;1.60;;;;;;;11.01;36.98;101188.28;5051972;28;20039;-56
2022/05/02 09:50:35;;;;;;;3.10;1.50;;;;;;;11.13;37.99;101200.38;5049594;28;20032;-63
2022/05/02 09:53:31;;;;;;;5.60;1.77;;;;;;;11.18;38.50;101196.25;5051725;28;20040;-65
2022/05/02 09:59:17;;;;;;;9.93;1.87;;;;;;;11.71;38.11;101183.72;5054249;28;20067;-64
2022/05/02 10:01:48;;;;;;;1.93;1.40;;;;;;;11.58;36.96;101170.84;5052528;28;20496;-65
2022/05/02 10:04:30;;;;;;;4.53;1.40;;;;;;;11.83;37.27;101181.63;5051429;28;20507;-65
2022/05/02 10:07:03;;;;;;;4.00;2.93;;;;;;;11.87;37.09;101175.84;5032352;28;20056;-64
2022/05/02 10:09:57;;;;;;;2.37;1.47;;;;;;;11.31;37.31;101059.84;5031966;28;20029;-66
2022/05/02 10:12:59;;;;;;;3.23;1.47;;;;;;;12.11;37.16;101161.72;5032503;28;20095;-61
2022/05/02 10:15:52;;;;;;;1.83;1.30;;;;;;;12.02;37.92;101162.69;5034288;28;20034;-67
2022/05/02 10:18:24;;;;;;;2.20;1.63;;;;;;;12.05;36.78;101157.84;5040559;28;20045;-61
2022/05/02 10:21:09;;;;;;;3.57;1.70;;;;;;;12.00;36.93;101136.16;5050888;28;20129;-61
2022/05/02 10:23:50;;;;;;;4.13;1.40;;;;;;;12.14;37.16;101144.53;5034826;28;20038;-65
2022/05/02 10:26:44;;;;;;;1.93;1.47;;;;;;;12.23;36.87;101148.91;5037423;28;20072;-64
2022/05/02 10:29:25;;;;;;;5.20;1.37;;;;;;;12.23;37.12;101140.88;5042272;28;20041;-60
2022/05/02 10:32:32;;;;;;;2.63;1.30;;;;;;;12.26;36.83;101129.88;5031799;28;20050;-64
2022/05/02 10:35:02;;;;;;;3.07;1.30;;;;;;;11.99;36.60;101070.44;5031956;28;20069;-64
2022/05/02 10:37:35;;;;;;;2.77;1.23;;;;;;;12.67;36.77;101120.88;5031888;28;20045;-64
2022/05/02 10:40:10;;;;;;;4.80;1.50;;;;;;;12.79;36.47;101117.88;5031971;28;20033;-64
2022/05/02 10:42:45;;;;;;;2.97;1.67;;;;;;;12.66;36.76;101123.72;5031852;28;20036;-66
2022/05/02 10:45:11;;;;;;;3.00;1.40;;;;;;;12.65;36.82;101122.88;5031991;28;20034;-63
2022/05/02 10:47:41;;;;;;;5.57;1.80;;;;;;;12.75;36.91;101104.03;5031394;28;20025;-62
2022/05/02 10:50:27;;;;;;;5.63;1.60;;;;;;;12.96;36.68;101117.69;5031326;28;20064;-60
2022/05/02 10:53:12;;;;;;;2.13;1.93;;;;;;;12.94;36.20;101105.50;5030420;28;20060;-65
2022/05/02 10:55:58;;;;;;;1.40;1.30;;;;;;;12.59;36.30;101054.09;5031389;28;20034;-62
2022/05/02 10:58:24;;;;;;;3.03;1.60;;;;;;;13.08;36.88;101101.31;5020007;28;20049;-62
2022/05/02 11:01:11;;;;;;;3.60;1.80;;;;;;;13.11;36.37;101096.44;5031159;28;20056;-63
2022/05/02 11:04:12;;;;;;;3.33;1.50;;;;;;;13.10;36.61;101057.34;5032485;28;20033;-65
2022/05/02 11:06:59;;;;;;;4.40;1.57;;;;;;;13.39;37.10;101085.38;5032465;28;20037;-62
2022/05/02 11:09:36;;;;;;;4.13;1.87;;;;;;;13.24;36.34;101075.38;5035068;28;20044;-61
2022/05/02 11:12:03;;;;;;;3.23;1.80;;;;;;;12.70;36.33;101029.69;5033533;28;20080;-63
2022/05/02 11:14:40;;;;;;;3.43;1.63;;;;;;;12.84;36.88;101073.59;5030171;28;20037;-62
2022/05/02 11:17:18;;;;;;;2.90;1.30;;;;;;;12.65;37.39;101053.41;5032702;28;20046;-61
2022/05/02 11:23:17;;;;;;;1.97;1.23;;;;;;;12.49;37.49;101058.78;5031671;28;20045;-59
2022/05/02 11:26:01;;;;;;;2.00;1.33;;;;;;;12.37;38.19;101057.44;5031274;28;20045;-62
2022/05/02 11:29:05;;;;;;;2.97;1.37;;;;;;;12.41;38.07;101062.28;5031099;28;20512;-64
2022/05/02 11:31:52;;;;;;;5.33;1.97;;;;;;;12.25;38.16;101058.78;5010663;28;20157;-64
2022/05/02 11:34:42;;;;;;;6.93;1.77;;;;;;;11.96;38.85;101035.22;5033796;28;20053;-63
2022/05/02 11:37:52;;;;;;;2.40;1.67;;;;;;;11.87;39.52;101041.56;5034888;28;20034;-61
2022/05/02 11:40:26;;;;;;;1.40;1.30;;;;;;;11.77;39.85;101033.66;5014946;28;20058;-64
2022/05/02 11:42:53;;;;;;;1.30;1.23;;;;;;;11.83;39.46;101029.50;5033159;28;20029;-62
2022/05/02 11:45:28;;;;;;;3.37;1.57;;;;;;;11.93;40.26;101031.06;5034305;28;20068;-59
2022/05/02 11:48:21;;;;;;;3.33;1.57;;;;;;;12.03;39.86;101026.38;5034774;28;20048;-63
2022/05/02 11:50:48;;;;;;;2.17;1.40;;;;;;;12.10;39.69;101016.69;5034729;28;20040;-62
2022/05/02 11:53:16;;;;;;;3.07;1.53;;;;;;;11.94;39.86;100960.66;5035613;28;20044;-60
2022/05/02 11:55:46;;;;;;;5.43;2.13;;;;;;;12.29;39.21;101009.38;5035560;28;20388;-65
2022/05/02 11:58:24;;;;;;;2.90;1.30;;;;;;;12.44;38.79;101010.38;5035882;28;20076;-60
2022/05/02 12:01:01;;;;;;;6.10;2.80;;;;;;;12.45;39.39;101017.38;5034926;28;20048;-61
2022/05/02 12:03:33;;;;;;;1.93;1.73;;;;;;;12.28;39.42;101002.38;5033450;28;20033;-64
2022/05/02 12:06:04;;;;;;;2.97;1.30;;;;;;;12.23;39.50;100994.84;5039720;28;20447;-72
2022/05/02 12:08:37;;;;;;;2.63;1.30;;;;;;;12.35;39.96;100998.84;5034350;28;20401;-66
2022/05/02 12:11:03;;;;;;;3.97;1.27;;;;;;;12.55;39.85;100998.50;5036287;28;20038;-68
2022/05/02 12:13:33;;;;;;;2.97;1.13;;;;;;;12.55;39.22;100980.63;5036400;28;20091;-70
2022/05/02 12:16:05;;;;;;;3.50;2.10;;;;;;;12.63;39.37;100975.25;5036459;28;20103;-70
2022/05/02 12:18:54;;;;;;;2.97;1.37;;;;;;;12.88;38.99;100983.22;5036097;28;20030;-69
2022/05/02 12:21:23;;;;;;;5.37;2.20;;;;;;;12.92;39.27;100974.66;5036544;28;20029;-61
2022/05/02 12:23:50;;;;;;;2.57;1.83;;;;;;;12.81;39.40;100948.31;5039531;28;20087;-63
2022/05/02 12:26:18;;;;;;;5.70;1.70;;;;;;;13.01;39.12;100972.81;5039175;28;20072;-64
2022/05/02 12:28:48;;;;;;;2.17;1.52;;;;;;;12.94;39.43;100953.94;5034885;28;20489;-67
2022/05/02 12:31:37;;;;;;;2.80;1.67;;;;;;;13.12;39.33;100964.41;5042505;28;20081;-65
2022/05/02 12:34:06;;;;;;;4.93;1.97;;;;;;;13.09;39.69;100943.38;5039275;28;20041;-63